Time;durP1;ratioP1;P1;durP2;ratioP2;P2;SDS_P1;SDS_P2;PMS_P1;PMS_P2;Temp;Humidity;BMP_temperature;BMP_pressure;BME280_temperature;BME280_humidity;BME280_pressure;Samples;Min_cycle;Max_cycle;Signal;HPM_P1;HPM_P2
2021/03/07 00:02:05;;;;;;;17.80;14.20;;;-1.60;99.90;;;;;;5079950;28;20438;-79
2021/03/07 00:04:31;;;;;;;17.00;14.53;;;-1.50;99.90;;;;;;5084757;28;20448;-79
2021/03/07 00:06:57;;;;;;;18.83;14.17;;;-1.60;99.90;;;;;;5079759;28;20444;-80
2021/03/07 00:09:24;;;;;;;15.17;13.23;;;-1.50;99.90;;;;;;5085648;28;20446;-80
2021/03/07 00:11:51;;;;;;;15.00;13.37;;;-1.50;99.90;;;;;;5078577;28;20863;-79
2021/03/07 00:14:17;;;;;;;15.63;13.53;;;-1.60;99.90;;;;;;5087905;28;20467;-79
2021/03/07 00:16:44;;;;;;;15.67;13.30;;;-1.60;99.90;;;;;;5079493;28;20525;-80
2021/03/07 00:19:10;;;;;;;15.53;12.73;;;-1.50;99.90;;;;;;5079228;28;20968;-79
2021/03/07 00:21:36;;;;;;;14.77;12.23;;;-1.50;99.90;;;;;;5083879;28;20443;-79
2021/03/07 00:24:04;;;;;;;14.60;13.10;;;-1.60;99.90;;;;;;5078756;28;20476;-79
2021/03/07 00:26:30;;;;;;;15.10;13.50;;;-1.50;99.90;;;;;;5073625;28;20455;-79
2021/03/07 00:28:57;;;;;;;15.10;13.50;;;-1.50;99.90;;;;;;5082321;28;20452;-80
2021/03/07 00:31:24;;;;;;;15.10;12.93;;;-1.60;99.90;;;;;;5084792;28;20472;-79
2021/03/07 00:33:51;;;;;;;14.30;12.80;;;-1.50;99.90;;;;;;5086911;28;20428;-80
2021/03/07 00:36:17;;;;;;;15.40;13.80;;;-1.60;99.90;;;;;;5083877;28;20452;-79
2021/03/07 00:38:43;;;;;;;15.17;13.40;;;-1.60;99.90;;;;;;5086855;28;20443;-79
2021/03/07 00:41:10;;;;;;;15.27;13.77;;;-1.60;99.90;;;;;;5084970;28;20589;-79
2021/03/07 00:43:36;;;;;;;18.57;15.13;;;-1.70;99.90;;;;;;5086927;28;20432;-79
2021/03/07 00:46:05;;;;;;;16.37;14.53;;;-1.70;99.90;;;;;;5083429;28;20576;-79
2021/03/07 00:48:31;;;;;;;21.20;14.57;;;-1.80;99.90;;;;;;5097935;28;20440;-79
2021/03/07 00:50:57;;;;;;;16.67;13.70;;;-1.80;99.90;;;;;;5084829;28;20487;-79
2021/03/07 00:53:23;;;;;;;18.33;13.63;;;-1.70;99.90;;;;;;5084346;28;20460;-78
2021/03/07 00:55:50;;;;;;;15.00;13.50;;;-1.70;99.90;;;;;;5084942;28;20471;-80
2021/03/07 00:58:16;;;;;;;15.73;13.73;;;-1.80;99.90;;;;;;5084893;28;20476;-80
2021/03/07 01:00:46;;;;;;;14.77;13.27;;;-1.80;99.90;;;;;;5086459;28;20994;-80
2021/03/07 01:03:13;;;;;;;15.23;12.90;;;-1.90;99.90;;;;;;5083462;28;20780;-79
2021/03/07 01:05:40;;;;;;;14.90;13.37;;;-1.90;99.90;;;;;;5086039;28;20429;-79
2021/03/07 01:08:06;;;;;;;16.00;14.07;;;-1.90;99.90;;;;;;5083961;28;20444;-80
2021/03/07 01:10:35;;;;;;;15.20;13.70;;;-1.80;99.90;;;;;;5084885;28;21057;-79
2021/03/07 01:13:03;;;;;;;18.33;14.23;;;-1.80;99.90;;;;;;5086176;28;20434;-79
2021/03/07 01:15:31;;;;;;;18.33;15.37;;;-1.90;99.90;;;;;;5073874;28;20464;-79
2021/03/07 01:17:58;;;;;;;20.67;15.73;;;-2.00;99.90;;;;;;5084951;28;20440;-79
2021/03/07 01:20:26;;;;;;;18.77;14.83;;;-2.00;99.90;;;;;;5082822;28;21026;-79
2021/03/07 01:22:52;;;;;;;21.37;15.43;;;-2.00;99.90;;;;;;5086152;28;20435;-78
2021/03/07 01:25:20;;;;;;;21.13;15.97;;;-1.90;99.90;;;;;;5083294;28;20477;-79
2021/03/07 01:27:46;;;;;;;18.67;15.00;;;-2.00;99.90;;;;;;5084776;28;20484;-80
2021/03/07 01:30:15;;;;;;;20.53;15.97;;;-2.10;99.90;;;;;;5083367;28;20478;-79
2021/03/07 01:32:41;;;;;;;20.93;15.60;;;-2.20;99.90;;;;;;5080845;28;20449;-79
2021/03/07 01:35:08;;;;;;;18.83;15.27;;;-2.20;99.90;;;;;;5089584;28;20473;-80
2021/03/07 01:37:35;;;;;;;21.30;15.57;;;-2.20;99.90;;;;;;5079990;28;20851;-79
2021/03/07 01:40:04;;;;;;;21.63;15.93;;;-2.20;99.90;;;;;;5088475;28;20465;-79
2021/03/07 01:42:30;;;;;;;20.27;15.33;;;-2.20;99.90;;;;;;5075524;28;20500;-79
2021/03/07 01:44:57;;;;;;;21.27;15.60;;;-2.30;99.90;;;;;;5080344;28;20445;-80
2021/03/07 01:47:31;;;;;;;20.30;17.17;;;-2.40;99.90;;;;;;5087225;28;20460;-80
2021/03/07 01:49:58;;;;;;;19.63;15.60;;;-2.40;99.90;;;;;;5080688;28;21081;-80
2021/03/07 01:52:24;;;;;;;16.67;14.87;;;-2.50;99.90;;;;;;5087684;28;20986;-79
2021/03/07 01:54:51;;;;;;;18.60;15.57;;;-2.50;99.90;;;;;;5080685;28;20573;-79
2021/03/07 01:57:20;;;;;;;20.13;16.17;;;-2.60;99.90;;;;;;5088788;28;20442;-79
2021/03/07 01:59:47;;;;;;;18.13;15.40;;;-2.60;99.90;;;;;;5080261;28;20507;-79
2021/03/07 02:02:14;;;;;;;22.80;17.13;;;-2.60;99.90;;;;;;5081829;28;20496;-80
2021/03/07 02:04:40;;;;;;;20.73;16.97;;;-2.60;99.90;;;;;;5080805;28;20442;-79
2021/03/07 02:07:06;;;;;;;19.77;17.00;;;-2.50;99.90;;;;;;5082099;28;20444;-79
2021/03/07 02:09:33;;;;;;;20.83;16.00;;;-2.50;99.90;;;;;;5077499;28;20821;-79
2021/03/07 02:12:01;;;;;;;19.77;16.70;;;-2.50;99.90;;;;;;5077021;28;20468;-78
2021/03/07 02:14:30;;;;;;;19.70;16.43;;;-2.50;99.90;;;;;;5081649;28;20477;-78
2021/03/07 02:16:57;;;;;;;20.70;15.60;;;-2.60;99.90;;;;;;5080198;28;20463;-80
2021/03/07 02:19:28;;;;;;;21.53;15.93;;;-2.60;99.90;;;;;;5082864;28;20508;-79
2021/03/07 02:21:58;;;;;;;20.57;15.53;;;-2.60;99.90;;;;;;5081765;28;20429;-79
2021/03/07 02:24:26;;;;;;;16.70;14.90;;;-2.60;99.90;;;;;;5084793;28;20440;-79
2021/03/07 02:26:53;;;;;;;18.43;15.10;;;-2.60;99.90;;;;;;5080780;28;20830;-79
2021/03/07 02:29:21;;;;;;;19.67;15.17;;;-2.50;99.90;;;;;;5077475;28;20448;-79
2021/03/07 02:31:50;;;;;;;19.50;15.30;;;-2.50;99.90;;;;;;5083519;28;20453;-79
2021/03/07 02:34:20;;;;;;;19.00;15.83;;;-2.50;99.90;;;;;;5069410;28;20444;-79
2021/03/07 02:36:51;;;;;;;21.80;16.43;;;-2.50;99.90;;;;;;5084550;28;20440;-79
2021/03/07 02:39:18;;;;;;;18.27;14.67;;;-2.50;99.90;;;;;;5081445;28;20445;-79
2021/03/07 02:41:46;;;;;;;20.63;15.30;;;-2.50;99.90;;;;;;5073789;28;20809;-79
2021/03/07 02:44:15;;;;;;;19.70;15.80;;;-2.50;99.90;;;;;;5082161;28;20784;-79
2021/03/07 02:46:42;;;;;;;19.57;15.40;;;-2.40;99.90;;;;;;5085291;28;20453;-79
2021/03/07 02:49:13;;;;;;;16.43;14.80;;;-2.50;99.90;;;;;;5080923;28;20433;-80
2021/03/07 02:51:40;;;;;;;22.03;14.97;;;-2.50;99.90;;;;;;5082930;28;20528;-79
2021/03/07 02:54:09;;;;;;;17.30;14.93;;;-2.50;99.90;;;;;;5082783;28;20452;-79
2021/03/07 02:56:37;;;;;;;16.80;15.00;;;-2.50;99.90;;;;;;5085226;28;20460;-79
2021/03/07 02:59:08;;;;;;;16.80;14.73;;;-2.50;99.90;;;;;;5091654;28;20448;-79
2021/03/07 03:01:37;;;;;;;19.00;14.33;;;-2.50;99.90;;;;;;5091974;28;20474;-79
2021/03/07 03:04:04;;;;;;;18.37;15.30;;;-2.60;99.90;;;;;;5091636;28;20461;-79
2021/03/07 03:06:31;;;;;;;16.73;15.00;;;-2.60;99.90;;;;;;5091394;28;20445;-79
2021/03/07 03:09:00;;;;;;;20.50;15.90;;;-2.60;99.90;;;;;;5088484;28;20496;-79
2021/03/07 03:11:31;;;;;;;17.23;14.63;;;-2.60;99.90;;;;;;5082762;28;21154;-79
2021/03/07 03:13:58;;;;;;;16.63;14.40;;;-2.60;99.90;;;;;;5080799;28;20861;-79
2021/03/07 03:16:28;;;;;;;20.13;14.80;;;-2.60;99.90;;;;;;5090305;28;20548;-79
2021/03/07 03:18:55;;;;;;;18.13;14.90;;;-2.70;99.90;;;;;;5092740;28;20479;-78
2021/03/07 03:21:22;;;;;;;19.30;15.27;;;-2.70;99.90;;;;;;5084056;28;20471;-79
2021/03/07 03:23:49;;;;;;;18.87;15.10;;;-2.60;99.90;;;;;;5078815;28;20815;-79
2021/03/07 03:26:19;;;;;;;16.20;14.27;;;-2.60;99.90;;;;;;5074165;28;20459;-79
2021/03/07 03:28:47;;;;;;;19.20;15.13;;;-2.70;99.90;;;;;;5082733;28;20512;-79
2021/03/07 03:31:13;;;;;;;19.53;14.67;;;-2.70;99.90;;;;;;5077450;28;20538;-78
2021/03/07 03:33:41;;;;;;;18.60;14.80;;;-2.70;99.90;;;;;;5080166;28;20440;-78
2021/03/07 03:36:07;;;;;;;18.07;14.73;;;-2.70;99.90;;;;;;5080377;28;20476;-79
2021/03/07 03:38:40;;;;;;;16.33;14.60;;;-2.60;99.90;;;;;;5082323;28;20448;-81
2021/03/07 03:41:08;;;;;;;16.23;13.87;;;-2.60;99.90;;;;;;5079198;28;20490;-77
2021/03/07 03:43:37;;;;;;;15.33;13.17;;;-2.60;99.90;;;;;;5080366;28;20487;-79
2021/03/07 03:46:05;;;;;;;15.10;13.60;;;-2.70;99.90;;;;;;5080915;28;20433;-79
2021/03/07 03:48:37;;;;;;;16.57;14.43;;;-2.70;99.90;;;;;;5092995;28;20429;-78
2021/03/07 03:51:06;;;;;;;16.20;13.43;;;-2.70;99.90;;;;;;5092977;28;20520;-78
2021/03/07 03:53:35;;;;;;;17.70;14.73;;;-2.70;99.90;;;;;;5081899;28;20441;-79
2021/03/07 03:56:02;;;;;;;16.30;13.60;;;-2.70;99.90;;;;;;5082123;28;20481;-80
2021/03/07 03:58:33;;;;;;;14.90;13.30;;;-2.70;99.90;;;;;;5057168;28;20457;-79
2021/03/07 04:01:02;;;;;;;15.67;14.07;;;-2.70;99.90;;;;;;5060478;28;20527;-78
2021/03/07 04:03:28;;;;;;;16.73;14.20;;;-2.70;99.90;;;;;;5073815;28;20824;-78
2021/03/07 04:05:56;;;;;;;16.97;15.07;;;-2.70;99.90;;;;;;5073425;28;20458;-78
2021/03/07 04:08:23;;;;;;;17.97;15.30;;;-2.70;99.90;;;;;;5056244;28;21033;-78
2021/03/07 04:10:51;;;;;;;18.50;14.07;;;-2.50;99.90;;;;;;5082706;28;20481;-85
2021/03/07 04:13:20;;;;;;;14.83;13.43;;;-2.60;99.90;;;;;;5075777;28;20822;-79
2021/03/07 04:15:47;;;;;;;16.03;14.43;;;-2.60;99.90;;;;;;5081741;28;20538;-80
2021/03/07 04:18:16;;;;;;;16.73;14.53;;;-2.60;99.90;;;;;;5086191;28;20502;-80
2021/03/07 04:20:45;;;;;;;16.53;14.83;;;-2.60;99.90;;;;;;5080242;28;20460;-80
2021/03/07 04:23:11;;;;;;;15.63;14.00;;;-2.70;99.90;;;;;;5080154;28;20811;-80
2021/03/07 04:25:39;;;;;;;14.90;13.40;;;-2.80;99.90;;;;;;5089756;28;20826;-80
2021/03/07 04:28:06;;;;;;;15.03;13.50;;;-2.80;99.90;;;;;;5085181;28;20443;-80
2021/03/07 04:30:33;;;;;;;17.87;14.93;;;-2.90;99.90;;;;;;5090316;28;20512;-82
2021/03/07 04:33:00;;;;;;;19.20;14.90;;;-2.90;99.90;;;;;;5078045;28;20821;-80
2021/03/07 04:35:26;;;;;;;15.87;14.27;;;-2.80;99.90;;;;;;5084918;28;20485;-80
2021/03/07 04:37:56;;;;;;;18.17;16.00;;;-2.80;99.90;;;;;;5086072;28;20828;-80
2021/03/07 04:40:23;;;;;;;15.07;13.53;;;-2.70;99.90;;;;;;5084337;28;20472;-80
2021/03/07 04:42:50;;;;;;;16.40;14.40;;;-2.70;99.90;;;;;;5079243;28;20879;-81
2021/03/07 04:45:18;;;;;;;15.27;13.77;;;-2.70;99.90;;;;;;5081498;28;20432;-80
2021/03/07 04:47:45;;;;;;;16.93;14.83;;;-2.60;99.90;;;;;;5075473;28;20453;-80
2021/03/07 04:50:12;;;;;;;17.50;14.87;;;-2.60;99.90;;;;;;5078554;28;20992;-81
2021/03/07 04:52:39;;;;;;;17.73;14.87;;;-2.60;99.90;;;;;;5076200;28;20872;-80
2021/03/07 04:55:07;;;;;;;17.63;14.97;;;-2.60;99.90;;;;;;5086773;28;20481;-81
2021/03/07 04:57:33;;;;;;;16.50;14.37;;;-2.60;99.90;;;;;;5081355;28;20453;-81
2021/03/07 05:00:01;;;;;;;16.00;14.40;;;-2.40;99.90;;;;;;5085464;28;20526;-81
2021/03/07 05:02:27;;;;;;;15.63;13.97;;;-2.50;99.90;;;;;;5080415;28;20451;-81
2021/03/07 05:04:54;;;;;;;17.87;14.90;;;-2.40;99.90;;;;;;5080320;28;20536;-81
2021/03/07 05:07:20;;;;;;;18.30;14.27;;;-2.40;99.90;;;;;;5083163;28;20857;-81
2021/03/07 05:09:46;;;;;;;16.07;14.37;;;-2.40;99.90;;;;;;5086609;28;20460;-81
2021/03/07 05:12:12;;;;;;;16.93;14.40;;;-2.40;99.90;;;;;;5085696;28;20501;-81
2021/03/07 05:14:39;;;;;;;16.20;14.37;;;-2.40;99.90;;;;;;5086075;28;20482;-81
2021/03/07 05:17:06;;;;;;;16.37;14.67;;;-2.40;99.90;;;;;;5082932;28;20452;-80
2021/03/07 05:19:32;;;;;;;18.73;15.70;;;-2.40;99.90;;;;;;5085003;28;20474;-81
2021/03/07 05:21:59;;;;;;;15.00;13.43;;;-2.40;99.90;;;;;;5081801;28;20504;-81
2021/03/07 05:24:25;;;;;;;15.87;13.73;;;-2.30;99.90;;;;;;5082804;28;20641;-81
2021/03/07 05:26:52;;;;;;;17.23;14.53;;;-2.30;99.90;;;;;;5085479;28;20484;-81
2021/03/07 05:29:18;;;;;;;16.83;14.77;;;-2.30;99.90;;;;;;5077274;28;20445;-81
2021/03/07 05:31:44;;;;;;;15.00;13.50;;;-2.30;99.90;;;;;;5082461;28;20499;-81
2021/03/07 05:34:12;;;;;;;17.17;14.27;;;-2.40;99.90;;;;;;5070700;28;20433;-81
2021/03/07 05:36:40;;;;;;;17.23;15.20;;;-2.40;99.90;;;;;;5084743;28;20485;-80
2021/03/07 05:39:07;;;;;;;16.43;14.23;;;-2.30;99.90;;;;;;5072532;28;20539;-80
2021/03/07 05:41:33;;;;;;;15.97;14.20;;;-2.30;99.90;;;;;;5074881;28;20435;-78
2021/03/07 05:44:00;;;;;;;16.77;14.63;;;-2.30;99.90;;;;;;5069209;28;20499;-77
2021/03/07 05:46:26;;;;;;;16.10;14.40;;;-2.30;99.90;;;;;;5079171;28;20436;-77
2021/03/07 05:48:53;;;;;;;19.10;15.57;;;-2.30;99.90;;;;;;5075489;28;20457;-77
2021/03/07 05:51:20;;;;;;;16.87;15.07;;;-2.30;99.90;;;;;;5083470;28;20467;-78
2021/03/07 05:53:49;;;;;;;18.40;14.37;;;-2.30;99.90;;;;;;5085433;28;20968;-77
2021/03/07 05:56:16;;;;;;;15.57;14.03;;;-2.30;99.90;;;;;;5080590;28;20856;-77
2021/03/07 05:58:42;;;;;;;16.87;14.67;;;-2.30;99.90;;;;;;5066195;28;20469;-77
2021/03/07 06:01:09;;;;;;;17.40;14.03;;;-2.30;99.90;;;;;;5071604;28;20458;-77
2021/03/07 06:03:35;;;;;;;19.63;15.07;;;-2.30;99.90;;;;;;5073543;28;20459;-77
2021/03/07 06:06:02;;;;;;;16.37;14.77;;;-2.20;99.90;;;;;;5074171;28;20494;-78
2021/03/07 06:08:29;;;;;;;18.70;15.47;;;-2.20;99.90;;;;;;5073484;28;20480;-79
2021/03/07 06:10:55;;;;;;;15.70;14.30;;;-2.10;99.90;;;;;;5073030;28;20458;-78
2021/03/07 06:13:22;;;;;;;16.63;14.87;;;-2.10;99.90;;;;;;5077443;28;20468;-79
2021/03/07 06:15:50;;;;;;;16.87;13.77;;;-2.10;99.90;;;;;;5079893;28;20825;-79
2021/03/07 06:18:18;;;;;;;16.37;14.10;;;-2.00;99.90;;;;;;5072099;28;20521;-78
2021/03/07 06:20:46;;;;;;;19.07;15.43;;;-2.00;99.90;;;;;;5079242;28;20483;-79
2021/03/07 06:23:12;;;;;;;15.97;14.37;;;-1.90;99.90;;;;;;5084739;28;20432;-78
2021/03/07 06:25:47;;;;;;;18.43;15.37;;;-1.80;99.90;;;;;;5085384;28;20488;-79
2021/03/07 06:28:25;;;;;;;15.30;13.80;;;-1.70;99.90;;;;;;5082660;28;20443;-79
2021/03/07 06:30:52;;;;;;;16.87;14.47;;;-1.70;99.90;;;;;;5080525;28;20974;-78
2021/03/07 06:33:30;;;;;;;15.63;13.97;;;-1.50;99.90;;;;;;5082784;28;20536;-79
2021/03/07 06:36:19;;;;;;;15.83;14.23;;;-1.50;99.90;;;;;;5071580;28;20461;-80
2021/03/07 06:38:47;;;;;;;18.27;15.13;;;-1.40;99.90;;;;;;5064047;28;20986;-79
2021/03/07 06:41:18;;;;;;;17.70;14.90;;;-1.30;99.90;;;;;;5071481;28;20476;-79
2021/03/07 06:43:45;;;;;;;18.20;14.80;;;-1.00;99.90;;;;;;5077679;28;20474;-79
2021/03/07 06:46:31;;;;;;;19.77;16.23;;;-1.00;99.90;;;;;;5079819;28;20456;-77
2021/03/07 06:48:58;;;;;;;16.37;14.67;;;-1.00;99.90;;;;;;5084808;28;20443;-77
2021/03/07 06:51:32;;;;;;;15.40;13.83;;;-0.80;99.90;;;;;;5076426;28;20533;-78
2021/03/07 06:53:59;;;;;;;17.57;15.67;;;-0.70;99.90;;;;;;5070901;28;20502;-78
2021/03/07 06:56:45;;;;;;;17.20;15.50;;;-0.50;99.90;;;;;;5069663;28;20826;-79
2021/03/07 06:59:13;;;;;;;16.87;15.03;;;-0.40;99.90;;;;;;5076029;28;20478;-79
2021/03/07 07:01:40;;;;;;;17.90;16.00;;;-0.40;99.90;;;;;;5079252;28;20440;-80
2021/03/07 07:04:07;;;;;;;15.43;13.93;;;-0.30;99.90;;;;;;5073879;28;20449;-79
2021/03/07 07:06:34;;;;;;;16.60;14.90;;;-0.20;99.90;;;;;;5072863;28;20457;-79
2021/03/07 07:09:07;;;;;;;18.90;15.20;;;-0.10;99.90;;;;;;5077000;28;20547;-82
2021/03/07 07:11:49;;;;;;;16.87;15.23;;;0.10;99.90;;;;;;5075945;28;20446;-80
2021/03/07 07:14:30;;;;;;;17.30;15.17;;;0.30;99.90;;;;;;5084324;28;20939;-80
2021/03/07 07:16:56;;;;;;;17.40;15.53;;;0.50;99.90;;;;;;5075998;28;20441;-80
2021/03/07 07:19:23;;;;;;;16.90;14.40;;;0.80;99.90;;;;;;5081526;28;20479;-78
2021/03/07 07:21:51;;;;;;;19.30;14.63;;;1.00;99.90;;;;;;5077198;28;20867;-79
2021/03/07 07:24:18;;;;;;;16.87;15.17;;;1.40;99.90;;;;;;5080827;28;20541;-78
2021/03/07 07:26:46;;;;;;;16.93;15.17;;;1.60;99.90;;;;;;5081449;28;20433;-78
2021/03/07 07:29:13;;;;;;;18.77;15.97;;;1.60;99.90;;;;;;5079428;28;20451;-78
2021/03/07 07:31:46;;;;;;;17.27;15.13;;;1.90;99.90;;;;;;5084825;28;20444;-79
2021/03/07 07:34:16;;;;;;;15.83;13.90;;;2.20;99.90;;;;;;5085809;28;20437;-79
2021/03/07 07:36:49;;;;;;;16.00;14.50;;;2.40;99.90;;;;;;5077539;28;20564;-78
2021/03/07 07:39:23;;;;;;;15.30;13.50;;;2.50;99.90;;;;;;5080460;28;20980;-79
2021/03/07 07:41:51;;;;;;;15.90;14.27;;;2.70;99.90;;;;;;5071356;28;20464;-78
2021/03/07 07:44:29;;;;;;;16.30;14.60;;;2.70;99.90;;;;;;5070782;28;20511;-79
2021/03/07 07:46:58;;;;;;;16.60;14.90;;;2.90;99.90;;;;;;5052456;28;20540;-78
2021/03/07 07:49:43;;;;;;;16.07;13.40;;;3.20;99.90;;;;;;5076798;28;21029;-78
2021/03/07 07:52:38;;;;;;;15.00;13.50;;;3.60;99.90;;;;;;5081456;28;20466;-79
2021/03/07 07:55:11;;;;;;;14.87;13.37;;;4.00;99.90;;;;;;5074540;28;20306;-79
2021/03/07 07:57:51;;;;;;;14.70;13.20;;;4.20;99.90;;;;;;5078016;28;20463;-79
2021/03/07 08:00:48;;;;;;;18.30;14.43;;;4.60;99.90;;;;;;5078174;28;20206;-79
2021/03/07 08:03:31;;;;;;;15.13;13.63;;;5.10;99.90;;;;;;5075216;28;20515;-79
2021/03/07 08:05:58;;;;;;;15.07;13.43;;;5.30;99.90;;;;;;5074778;28;20641;-78
2021/03/07 08:08:31;;;;;;;15.20;13.50;;;5.80;99.90;;;;;;5070791;28;20233;-79
2021/03/07 08:10:59;;;;;;;13.43;12.10;;;6.00;99.90;;;;;;5071708;28;20206;-79
2021/03/07 08:14:00;;;;;;;13.80;12.30;;;6.40;99.90;;;;;;5071509;28;20198;-80
2021/03/07 08:16:40;;;;;;;16.23;14.73;;;6.70;99.90;;;;;;5053759;28;20206;-78
2021/03/07 08:19:11;;;;;;;13.63;12.37;;;6.90;99.90;;;;;;5071760;28;20292;-78
2021/03/07 08:22:07;;;;;;;14.93;13.33;;;7.00;99.90;;;;;;5068403;28;20290;-79
2021/03/07 08:24:57;;;;;;;14.57;12.97;;;7.00;99.90;;;;;;5072993;28;20195;-78
2021/03/07 08:27:36;;;;;;;16.03;11.60;;;7.10;99.90;;;;;;5065812;28;20194;-78
2021/03/07 08:30:07;;;;;;;12.50;10.17;;;7.10;99.90;;;;;;5073166;28;20227;-79
2021/03/07 08:32:37;;;;;;;13.07;11.67;;;7.20;99.90;;;;;;5073571;28;20195;-79
2021/03/07 08:35:12;;;;;;;12.90;11.53;;;7.00;99.90;;;;;;5060802;28;20220;-79
2021/03/07 08:37:39;;;;;;;12.43;11.13;;;7.20;99.90;;;;;;5058705;28;20746;-79
2021/03/07 08:40:29;;;;;;;12.50;11.17;;;7.40;99.90;;;;;;5064829;28;20221;-78
2021/03/07 08:42:57;;;;;;;12.70;11.40;;;7.60;99.90;;;;;;5067202;28;20202;-79
2021/03/07 08:45:26;;;;;;;12.67;10.43;;;7.70;99.90;;;;;;5063073;28;20208;-79
2021/03/07 08:47:58;;;;;;;12.00;10.73;;;7.90;99.90;;;;;;5063030;28;20189;-80
2021/03/07 08:50:26;;;;;;;14.67;13.17;;;7.80;99.90;;;;;;5067477;28;20232;-80
2021/03/07 08:52:53;;;;;;;13.20;11.93;;;7.70;99.90;;;;;;5058881;28;20201;-79
2021/03/07 08:55:20;;;;;;;13.33;12.13;;;7.90;99.90;;;;;;5083056;28;20215;-79
2021/03/07 08:57:49;;;;;;;14.33;12.93;;;8.10;99.90;;;;;;5083069;28;20640;-79
2021/03/07 09:00:18;;;;;;;11.67;10.47;;;8.30;99.90;;;;;;5085646;28;20708;-79
2021/03/07 09:02:46;;;;;;;11.53;8.53;;;8.30;99.90;;;;;;5081353;28;20194;-79
2021/03/07 09:05:31;;;;;;;8.77;7.57;;;8.40;99.90;;;;;;5078820;28;20579;-79
2021/03/07 09:08:02;;;;;;;12.97;9.07;;;8.60;99.90;;;;;;5075537;28;20235;-80
2021/03/07 09:10:34;;;;;;;13.97;12.57;;;8.70;99.90;;;;;;5088199;28;20212;-80
2021/03/07 09:13:14;;;;;;;12.80;11.60;;;8.70;99.90;;;;;;5059804;28;20210;-80
2021/03/07 09:15:50;;;;;;;14.43;13.03;;;9.10;99.90;;;;;;5076252;28;20225;-79
2021/03/07 09:18:18;;;;;;;14.77;13.37;;;9.20;99.90;;;;;;5086850;28;20197;-79
2021/03/07 09:20:48;;;;;;;14.77;13.37;;;8.90;99.90;;;;;;5088530;28;20210;-80
2021/03/07 09:23:32;;;;;;;13.83;12.53;;;9.00;99.90;;;;;;5079944;28;20202;-79
2021/03/07 09:25:59;;;;;;;14.23;12.87;;;9.20;99.90;;;;;;5087445;28;20193;-79
2021/03/07 09:28:34;;;;;;;14.07;12.70;;;9.20;99.90;;;;;;5082958;28;20194;-80
2021/03/07 09:31:03;;;;;;;13.97;12.67;;;9.40;99.90;;;;;;5089532;28;20221;-80
2021/03/07 09:33:30;;;;;;;14.37;13.00;;;9.50;99.90;;;;;;5083723;28;20198;-79
2021/03/07 09:36:08;;;;;;;14.07;12.77;;;9.20;99.90;;;;;;5074081;28;20320;-80
2021/03/07 09:38:42;;;;;;;15.63;14.00;;;9.40;99.90;;;;;;5084863;28;20197;-80
2021/03/07 09:41:09;;;;;;;14.60;13.03;;;9.50;99.90;;;;;;5079815;28;20229;-80
2021/03/07 09:43:36;;;;;;;14.67;13.37;;;9.60;99.90;;;;;;5084219;28;20208;-80
2021/03/07 09:46:04;;;;;;;15.53;13.93;;;9.60;99.90;;;;;;5074709;28;20552;-80
2021/03/07 09:48:34;;;;;;;11.77;10.57;;;9.50;99.90;;;;;;5075855;28;20189;-80
2021/03/07 09:51:02;;;;;;;14.30;13.00;;;9.50;99.90;;;;;;5079047;28;20217;-80
2021/03/07 09:53:31;;;;;;;13.30;11.90;;;9.40;99.90;;;;;;5087189;28;20568;-80
2021/03/07 09:55:57;;;;;;;12.87;10.63;;;9.40;99.90;;;;;;5085206;28;20206;-81
2021/03/07 09:58:34;;;;;;;11.77;10.20;;;9.40;99.90;;;;;;5076220;28;20205;-80
2021/03/07 10:01:04;;;;;;;12.80;11.47;;;9.50;99.90;;;;;;5080699;28;20214;-80
2021/03/07 10:03:32;;;;;;;14.43;13.13;;;9.70;99.90;;;;;;5075257;28;20186;-80
2021/03/07 10:06:10;;;;;;;14.37;13.00;;;9.40;99.90;;;;;;5083958;28;20198;-80
2021/03/07 10:08:38;;;;;;;11.53;10.10;;;9.40;99.90;;;;;;5076075;28;20289;-81
2021/03/07 10:11:12;;;;;;;11.43;9.70;;;9.60;99.90;;;;;;5088875;28;20214;-81
2021/03/07 10:13:40;;;;;;;11.17;10.00;;;9.60;99.90;;;;;;5078996;28;20262;-79
2021/03/07 10:16:10;;;;;;;13.37;10.20;;;9.50;99.90;;;;;;5078666;28;20218;-80
2021/03/07 10:18:37;;;;;;;11.07;8.93;;;9.20;99.90;;;;;;5084087;28;20195;-78
2021/03/07 10:21:06;;;;;;;12.67;8.90;;;9.30;99.90;;;;;;5081813;28;20597;-78
2021/03/07 10:23:34;;;;;;;13.40;10.23;;;9.60;99.90;;;;;;5075219;28;20213;-77
2021/03/07 10:26:01;;;;;;;14.47;12.97;;;9.70;99.90;;;;;;5089241;28;20202;-78
2021/03/07 10:28:29;;;;;;;14.50;13.10;;;9.50;99.90;;;;;;5082851;28;20194;-80
2021/03/07 10:31:06;;;;;;;13.33;11.90;;;9.30;99.90;;;;;;5079977;28;20305;-78
2021/03/07 10:33:32;;;;;;;15.47;13.40;;;9.40;99.90;;;;;;5061364;28;20203;-78
2021/03/07 10:36:06;;;;;;;13.00;11.70;;;9.40;99.90;;;;;;5068282;28;20713;-78
2021/03/07 10:38:33;;;;;;;14.17;12.87;;;9.60;99.90;;;;;;5084633;28;20661;-78
2021/03/07 10:41:16;;;;;;;15.20;13.20;;;9.40;99.90;;;;;;5066362;28;20222;-78
2021/03/07 10:43:47;;;;;;;14.20;12.83;;;9.50;99.90;;;;;;5069689;28;20199;-78
2021/03/07 10:46:24;;;;;;;14.37;12.87;;;9.50;99.90;;;;;;5082360;28;20186;-81
2021/03/07 10:48:52;;;;;;;14.67;13.30;;;9.70;99.90;;;;;;5074982;28;20255;-79
2021/03/07 10:51:20;;;;;;;12.17;9.03;;;9.80;99.90;;;;;;5064568;28;20221;-79
2021/03/07 10:53:46;;;;;;;11.03;8.20;;;9.90;99.90;;;;;;5065350;28;20236;-79
2021/03/07 10:56:13;;;;;;;13.50;10.50;;;10.00;99.90;;;;;;5066904;28;20290;-80
2021/03/07 10:58:39;;;;;;;12.47;9.37;;;9.80;99.90;;;;;;5074096;28;20700;-79
2021/03/07 11:01:05;;;;;;;12.70;9.17;;;9.80;99.90;;;;;;5079569;28;20219;-77
2021/03/07 11:03:32;;;;;;;12.33;9.27;;;9.80;99.90;;;;;;5077736;28;20200;-80
2021/03/07 11:05:59;;;;;;;12.60;10.00;;;9.70;99.90;;;;;;5079660;28;20187;-81
2021/03/07 11:08:26;;;;;;;13.33;10.10;;;9.70;99.90;;;;;;5069227;28;20206;-80
2021/03/07 11:10:52;;;;;;;12.17;9.30;;;9.70;99.90;;;;;;5081525;28;20226;-80
2021/03/07 11:13:18;;;;;;;12.13;9.57;;;9.60;99.90;;;;;;5060023;28;20664;-77
2021/03/07 11:15:45;;;;;;;11.97;9.37;;;9.50;99.90;;;;;;5076650;28;20218;-81
2021/03/07 11:18:12;;;;;;;12.17;9.70;;;9.50;99.90;;;;;;5080526;28;20200;-81
2021/03/07 11:20:38;;;;;;;12.70;9.37;;;9.40;99.90;;;;;;5077823;28;20210;-82
2021/03/07 11:23:05;;;;;;;11.53;9.13;;;9.60;99.90;;;;;;5080296;28;20208;-80
2021/03/07 11:25:32;;;;;;;13.77;9.83;;;9.60;99.90;;;;;;5077817;28;20201;-81
2021/03/07 11:27:58;;;;;;;12.90;9.17;;;9.50;99.90;;;;;;5084141;28;20197;-80
2021/03/07 11:30:25;;;;;;;11.80;8.50;;;9.50;99.90;;;;;;5070617;28;20244;-81
2021/03/07 11:32:51;;;;;;;12.23;8.63;;;9.60;99.90;;;;;;5075068;28;20240;-82
2021/03/07 11:35:18;;;;;;;12.07;9.57;;;9.60;99.90;;;;;;5071857;28;20236;-80
2021/03/07 11:37:44;;;;;;;10.73;7.93;;;9.60;99.90;;;;;;5068911;28;20266;-81
2021/03/07 11:40:11;;;;;;;10.90;8.97;;;9.60;99.90;;;;;;5075070;28;20221;-79
2021/03/07 11:42:39;;;;;;;12.40;9.27;;;9.80;99.90;;;;;;5064093;28;20218;-79
2021/03/07 11:45:08;;;;;;;12.97;9.97;;;9.80;99.90;;;;;;5074402;28;20198;-79
2021/03/07 11:47:35;;;;;;;12.60;9.23;;;9.60;99.90;;;;;;5068412;28;20727;-80
2021/03/07 11:50:01;;;;;;;10.77;8.17;;;9.60;99.90;;;;;;5075525;28;20217;-79
2021/03/07 11:52:28;;;;;;;12.37;8.97;;;9.70;99.90;;;;;;5061910;28;20197;-79
2021/03/07 11:54:54;;;;;;;10.73;8.50;;;9.60;99.90;;;;;;5061415;28;20252;-80
2021/03/07 11:57:21;;;;;;;12.77;9.57;;;9.50;99.90;;;;;;5070806;28;20267;-80
2021/03/07 11:59:48;;;;;;;19.57;13.03;;;9.40;99.90;;;;;;5084466;28;20224;-79
2021/03/07 12:02:14;;;;;;;17.17;14.13;;;9.20;99.90;;;;;;5082080;28;20178;-79
2021/03/07 12:04:40;;;;;;;17.20;14.47;;;9.10;99.90;;;;;;5082184;28;20288;-81
2021/03/07 12:07:07;;;;;;;15.37;12.63;;;9.20;99.90;;;;;;5071651;28;20572;-80
2021/03/07 12:09:33;;;;;;;19.73;13.90;;;9.30;99.90;;;;;;5060755;28;20219;-80
2021/03/07 12:12:00;;;;;;;14.73;12.20;;;9.30;99.90;;;;;;5066035;28;20203;-81
2021/03/07 12:14:27;;;;;;;15.23;11.87;;;9.20;99.90;;;;;;5066330;28;20219;-80
2021/03/07 12:16:54;;;;;;;16.20;14.10;;;9.20;99.90;;;;;;5056958;28;20599;-80
2021/03/07 12:19:21;;;;;;;17.73;15.47;;;9.10;99.90;;;;;;5064044;28;20206;-82
2021/03/07 12:21:47;;;;;;;18.60;16.47;;;9.20;99.90;;;;;;5064789;28;20194;-80
2021/03/07 12:24:13;;;;;;;17.33;13.50;;;9.10;99.90;;;;;;5071597;28;20572;-80
2021/03/07 12:26:40;;;;;;;16.70;15.00;;;9.10;99.90;;;;;;5068697;28;20195;-80
2021/03/07 12:29:06;;;;;;;18.27;15.47;;;9.20;99.90;;;;;;5061542;28;20199;-79
2021/03/07 12:31:33;;;;;;;17.73;15.43;;;9.10;99.90;;;;;;5066723;28;20201;-79
2021/03/07 12:34:01;;;;;;;16.17;14.47;;;9.10;99.90;;;;;;5063563;28;20206;-80
2021/03/07 12:36:27;;;;;;;16.93;15.20;;;9.10;99.90;;;;;;5066529;28;20247;-81
2021/03/07 12:38:58;;;;;;;16.80;14.73;;;9.20;99.90;;;;;;5059887;28;20205;-81
2021/03/07 12:41:24;;;;;;;15.43;13.17;;;9.20;99.90;;;;;;5068495;28;20250;-80
2021/03/07 12:43:50;;;;;;;16.07;13.23;;;9.20;99.90;;;;;;5062742;28;20689;-81